Printer, KY (41655)

2:02 AM EST on March 01, 2015 (GMT -0500)
Quail Ridge | Change Station
CLOSE
Current Station
Personal Weather Station
Location: Pikeville, KY
Elevation: 778 ft
Nearby Weather Stations
Active Advisory: Special Statement

Elev 778 ft 37.50 °N, 82.54 °W | Updated 18 seconds ago

Clear
Clear
32.0 °F
Feels Like 32 °F
N
0.0
Wind Variable Wind from SE
Gusts 0.0 mph

Today
High -- | Low -- °F
--% Chance of Precip.
Yesterday
High -- | Low -- °F
Precip. -- in
7:02 AM 6:24 PM
Waxing Gibbous, 83% visible
Pressure 30.42 in
Visibility 10.0 miles
Clouds Overcast 10000 ft
Windchill 32 °F
Dew Point 27 °F
Humidity 82%
Rainfall 0.00 in
Snow Depth Not available.
UV 0 out of 12
Pollen .60 out of 12
Air Quality Not available.
Flu Activity Not available.
METAR KSJS 010635Z AUTO 00000KT 10SM OVC100 02/M06 A3042 RMK AO2 T00161061

More Conditions Fewer Conditions

Pressure 30.42 in
Visibility 10.0 miles
Clouds Overcast 10000 ft
Windchill 32 °F
Dew Point 27 °F
Humidity 82%
Rainfall 0.00 in
Snow Depth Not available.
UV 0 out of 12
Pollen .60 out of 12
Air Quality Not available.
Flu Activity Not available.
METAR KSJS 010635Z AUTO 00000KT 10SM OVC100 02/M06 A3042 RMK AO2 T00161061

More Conditions Fewer Conditions

10-Day Weather Forecast

Almanac

Astronomy

Mar. 01, 2015 Rise Set
Actual Time
Civil Twilight
Nautical Twilight
Astronomical Twilight
Moon
Length of Visible Light
Length of Day
Tomorrow will be .
, % of the Moon is Illuminated

Today's Extremes

State Highs State Lows

Community

WunderPhotos

Upload Photos

1,801,347 photos uploaded!

WunderBlogs® & News

Nearby

Air Quality

  Air Quality AQ Index Pollutant
Not available.

Snow Depth

Station Depth Elevation

Earthquake Activity

City Distance Mag. Time & Date
Minimum magnitude displayed is 2.5.

Coastal Water Temperatures

Place Temperature

Nearby Weather Stations

Special Statement
Statement as of 1:39 AM EST on March 01, 2015

... Light wintry mix possible through dawn...

Light precipitation is expected to develop over much of eastern
and northern Kentucky through Sunday morning. Freezing rain... and
a brief period of sleet is possible. A light coating of ice may
occur. Surface temperatures are expected to fall below freezing
across the area before dawn... and combined with the frozen
precipitation... could lead to some slick spots developing on area
roads. Those with travel plans into Sunday morning should be
prepared for extended travel time.


Kas/shallenberger